Ash Grove, Nebraska
Current Conditions -  °F | °C
As of 3:55 PM on Thursday 27 Nov 2014 (Local Time) from KHDE Reporting Station
Clear Clear  
Wind Chill: 37°   Ceiling: Unl
Heat Index: 44°   Visibility: 10mi
Dew Point: 20°   Wind: 16mph
Humidity: 37%   Direction: 170°S
Pressure: 30.11"   Gusts: 23mph
Location:  40.1734°N, 98.8989°W
Report Text: KHDE 272155Z AUTO 17014G20KT 10SM CLR 07/M07 A3011 RMK AO2 T00681069
Loading
Personal Weather Stations






























Interactive Weather Map New forecast layout! Learn more

10-Day Weather Forecast

Advertisements
Track Severe Weather on mobile